Terminal Aerodrome Forecast
Issued by NWS

Home | Current Version | Previous Version | Text Only | Print | Product List | Glossary On
Versions: 1 2 3 4 5 6 7 8 9 10 11 12 13 14
090
FTUS42 KMLB 172345
TAFISM
TAF
KISM 172345Z 1800/1824 03013G20KT P6SM SCT025 BKN040
     FM180300 36008KT P6SM SCT025 BKN050
     FM181200 01007KT P6SM SCT025 BKN100
     FM181800 05011G18KT P6SM VCSH SCT020 BKN050=

USA.gov is the U.S. government's official web portal to all federal, state and local government web resources and services.